Con. actuales
Mostly Clear
Conditions



PressiĆ³n:
1010.84 (hPa) - 29.85 (inHG)
Visibilidad:

9.7 (km) - 6.0 (miles)
Base de Nubes

Despejado (Mts) - Despejado (Feets)
   Temperatura
27  °C
Temperatura
19  °C
62  %
 Humedad
   Velocidad del Viento
16  km/h
9  kts
10  mph
4.5  m/s
   Wind Direction
N
45°
E
90°
135°
S
180°
225°
O
270°
315°
 30°

Nor Nor
Este
   Airport Data
SAEZ
Minister Pistarini International Airport
Metar :SAEZ 211300Z 03009KT CAVOK 27/19 Q1011 NOSIG
Wed 21st February 10:00 am
   Raw Metar Info
Raw METAR is the most common format in the world for the transmission of observational weather data. It is highly standardized through the International Civil Aviation Organization (ICAO), which allows it to be understood throughout most of the world.
   API Info
Data Provided by
https://www.checkwx.com/weather/SAEZ

Aviation Weather providing METAR, TAF, AIRMET, SIGMET and OUTLOOK Weather Reports
   © Info
CSS/SVG/PHP scripts were developed by weather34.com for use in the weather34 template © 2015-2024

Guide Info provided by Metar-Wikipedia